sensor_id;sensor_type;location;lat;lon;timestamp;P1;durP1;ratioP1;P2;durP2;ratioP2
28746;SDS011;15903;49.008;8.394;2023-03-01T00:01:10;24.52;;;12.23;;
28746;SDS011;15903;49.008;8.394;2023-03-01T00:03:47;20.02;;;11.02;;
28746;SDS011;15903;49.008;8.394;2023-03-01T00:06:13;19.65;;;11.50;;
28746;SDS011;15903;49.008;8.394;2023-03-01T00:08:38;23.30;;;11.85;;
28746;SDS011;15903;49.008;8.394;2023-03-01T00:11:12;22.92;;;11.68;;
28746;SDS011;15903;49.008;8.394;2023-03-01T00:13:39;20.85;;;11.48;;
28746;SDS011;15903;49.008;8.394;2023-03-01T00:16:07;22.52;;;11.77;;
28746;SDS011;15903;49.008;8.394;2023-03-01T00:18:38;18.65;;;11.27;;
28746;SDS011;15903;49.008;8.394;2023-03-01T00:21:04;21.85;;;12.43;;
28746;SDS011;15903;49.008;8.394;2023-03-01T00:23:30;21.65;;;11.88;;
28746;SDS011;15903;49.008;8.394;2023-03-01T00:25:56;18.25;;;10.68;;
28746;SDS011;15903;49.008;8.394;2023-03-01T00:28:22;28.05;;;12.25;;
28746;SDS011;15903;49.008;8.394;2023-03-01T00:30:48;25.15;;;13.35;;
28746;SDS011;15903;49.008;8.394;2023-03-01T00:33:13;25.13;;;13.52;;
28746;SDS011;15903;49.008;8.394;2023-03-01T00:35:39;28.23;;;12.70;;
28746;SDS011;15903;49.008;8.394;2023-03-01T00:38:05;21.50;;;12.00;;
28746;SDS011;15903;49.008;8.394;2023-03-01T00:40:31;21.20;;;12.93;;
28746;SDS011;15903;49.008;8.394;2023-03-01T00:42:59;26.90;;;14.20;;
28746;SDS011;15903;49.008;8.394;2023-03-01T00:45:25;25.25;;;14.05;;
28746;SDS011;15903;49.008;8.394;2023-03-01T00:47:51;26.13;;;14.32;;
28746;SDS011;15903;49.008;8.394;2023-03-01T00:50:17;26.52;;;14.20;;
28746;SDS011;15903;49.008;8.394;2023-03-01T00:52:43;26.25;;;14.43;;
28746;SDS011;15903;49.008;8.394;2023-03-01T00:55:09;27.05;;;14.20;;
28746;SDS011;15903;49.008;8.394;2023-03-01T00:57:35;29.00;;;13.35;;
28746;SDS011;15903;49.008;8.394;2023-03-01T01:00:01;25.75;;;14.15;;
28746;SDS011;15903;49.008;8.394;2023-03-01T01:02:29;30.75;;;15.20;;
28746;SDS011;15903;49.008;8.394;2023-03-01T01:04:54;33.38;;;15.27;;
28746;SDS011;15903;49.008;8.394;2023-03-01T01:07:20;33.15;;;16.00;;
28746;SDS011;15903;49.008;8.394;2023-03-01T01:09:46;26.23;;;14.43;;
28746;SDS011;15903;49.008;8.394;2023-03-01T01:12:12;26.10;;;14.52;;
28746;SDS011;15903;49.008;8.394;2023-03-01T01:14:37;26.52;;;13.18;;
28746;SDS011;15903;49.008;8.394;2023-03-01T01:17:03;25.58;;;12.57;;
28746;SDS011;15903;49.008;8.394;2023-03-01T01:19:29;29.42;;;13.52;;
28746;SDS011;15903;49.008;8.394;2023-03-01T01:21:55;21.73;;;12.85;;
28746;SDS011;15903;49.008;8.394;2023-03-01T01:24:21;27.98;;;12.85;;
28746;SDS011;15903;49.008;8.394;2023-03-01T01:26:46;20.88;;;11.98;;
28746;SDS011;15903;49.008;8.394;2023-03-01T01:29:12;26.52;;;13.65;;
28746;SDS011;15903;49.008;8.394;2023-03-01T01:31:39;24.40;;;12.90;;
28746;SDS011;15903;49.008;8.394;2023-03-01T01:34:08;25.10;;;12.13;;
28746;SDS011;15903;49.008;8.394;2023-03-01T01:36:38;22.27;;;13.00;;
28746;SDS011;15903;49.008;8.394;2023-03-01T01:39:03;26.13;;;13.52;;
28746;SDS011;15903;49.008;8.394;2023-03-01T01:41:29;22.95;;;12.68;;
28746;SDS011;15903;49.008;8.394;2023-03-01T01:44:10;25.33;;;12.82;;
28746;SDS011;15903;49.008;8.394;2023-03-01T01:46:39;22.13;;;12.43;;
28746;SDS011;15903;49.008;8.394;2023-03-01T01:57:27;29.77;;;14.48;;
28746;SDS011;15903;49.008;8.394;2023-03-01T01:59:59;26.80;;;14.05;;
28746;SDS011;15903;49.008;8.394;2023-03-01T02:02:28;23.08;;;12.75;;
28746;SDS011;15903;49.008;8.394;2023-03-01T02:04:58;27.05;;;13.80;;
28746;SDS011;15903;49.008;8.394;2023-03-01T02:07:35;24.17;;;13.27;;
28746;SDS011;15903;49.008;8.394;2023-03-01T02:10:04;28.33;;;13.73;;
28746;SDS011;15903;49.008;8.394;2023-03-01T02:12:30;24.35;;;13.82;;
28746;SDS011;15903;49.008;8.394;2023-03-01T02:14:56;29.25;;;14.93;;
28746;SDS011;15903;49.008;8.394;2023-03-01T02:17:22;26.30;;;14.50;;
28746;SDS011;15903;49.008;8.394;2023-03-01T02:22:30;24.40;;;13.07;;
28746;SDS011;15903;49.008;8.394;2023-03-01T02:27:48;26.85;;;14.93;;
28746;SDS011;15903;49.008;8.394;2023-03-01T02:30:25;25.00;;;13.60;;
28746;SDS011;15903;49.008;8.394;2023-03-01T02:32:52;29.83;;;14.68;;
28746;SDS011;15903;49.008;8.394;2023-03-01T02:35:27;25.02;;;13.98;;
28746;SDS011;15903;49.008;8.394;2023-03-01T02:37:55;27.13;;;14.73;;
28746;SDS011;15903;49.008;8.394;2023-03-01T02:40:22;27.17;;;14.57;;
28746;SDS011;15903;49.008;8.394;2023-03-01T02:42:54;25.23;;;14.45;;
28746;SDS011;15903;49.008;8.394;2023-03-01T02:45:23;26.13;;;14.73;;
28746;SDS011;15903;49.008;8.394;2023-03-01T02:47:49;31.92;;;15.13;;
28746;SDS011;15903;49.008;8.394;2023-03-01T02:52:54;29.45;;;14.63;;
28746;SDS011;15903;49.008;8.394;2023-03-01T02:55:37;33.88;;;14.95;;
28746;SDS011;15903;49.008;8.394;2023-03-01T02:58:03;27.52;;;14.93;;
28746;SDS011;15903;49.008;8.394;2023-03-01T03:00:36;26.83;;;14.82;;
28746;SDS011;15903;49.008;8.394;2023-03-01T03:03:05;30.30;;;15.57;;
28746;SDS011;15903;49.008;8.394;2023-03-01T03:05:32;32.95;;;15.35;;
28746;SDS011;15903;49.008;8.394;2023-03-01T03:07:59;29.13;;;15.52;;
28746;SDS011;15903;49.008;8.394;2023-03-01T03:10:28;29.60;;;15.40;;
28746;SDS011;15903;49.008;8.394;2023-03-01T03:12:57;30.90;;;15.85;;
28746;SDS011;15903;49.008;8.394;2023-03-01T03:15:25;31.48;;;14.98;;
28746;SDS011;15903;49.008;8.394;2023-03-01T03:17:52;32.40;;;15.93;;
28746;SDS011;15903;49.008;8.394;2023-03-01T03:20:19;27.67;;;15.10;;
28746;SDS011;15903;49.008;8.394;2023-03-01T03:22:47;32.20;;;15.98;;
28746;SDS011;15903;49.008;8.394;2023-03-01T03:25:15;30.27;;;16.23;;
28746;SDS011;15903;49.008;8.394;2023-03-01T03:27:42;29.67;;;15.55;;
28746;SDS011;15903;49.008;8.394;2023-03-01T03:30:10;29.35;;;16.67;;
28746;SDS011;15903;49.008;8.394;2023-03-01T03:32:39;30.40;;;16.25;;
28746;SDS011;15903;49.008;8.394;2023-03-01T03:35:07;30.85;;;16.27;;
28746;SDS011;15903;49.008;8.394;2023-03-01T03:37:43;30.20;;;16.52;;
28746;SDS011;15903;49.008;8.394;2023-03-01T03:40:27;31.48;;;15.88;;
28746;SDS011;15903;49.008;8.394;2023-03-01T03:43:08;33.55;;;17.05;;
28746;SDS011;15903;49.008;8.394;2023-03-01T03:45:35;33.55;;;16.77;;
28746;SDS011;15903;49.008;8.394;2023-03-01T03:48:02;35.35;;;18.05;;
28746;SDS011;15903;49.008;8.394;2023-03-01T03:50:29;27.00;;;15.70;;
28746;SDS011;15903;49.008;8.394;2023-03-01T03:52:55;35.38;;;17.77;;
28746;SDS011;15903;49.008;8.394;2023-03-01T03:55:21;34.45;;;17.90;;
28746;SDS011;15903;49.008;8.394;2023-03-01T03:57:47;31.15;;;16.27;;
28746;SDS011;15903;49.008;8.394;2023-03-01T04:00:16;31.55;;;16.05;;
28746;SDS011;15903;49.008;8.394;2023-03-01T04:02:44;30.25;;;16.40;;
28746;SDS011;15903;49.008;8.394;2023-03-01T04:05:11;31.52;;;16.27;;
28746;SDS011;15903;49.008;8.394;2023-03-01T04:07:39;33.15;;;16.95;;
28746;SDS011;15903;49.008;8.394;2023-03-01T04:10:07;27.17;;;16.42;;
28746;SDS011;15903;49.008;8.394;2023-03-01T04:12:42;32.92;;;16.90;;
28746;SDS011;15903;49.008;8.394;2023-03-01T04:15:08;32.72;;;17.05;;
28746;SDS011;15903;49.008;8.394;2023-03-01T04:17:45;33.60;;;18.63;;
28746;SDS011;15903;49.008;8.394;2023-03-01T04:22:50;36.25;;;17.52;;
28746;SDS011;15903;49.008;8.394;2023-03-01T04:25:51;36.80;;;17.75;;
28746;SDS011;15903;49.008;8.394;2023-03-01T04:28:23;32.25;;;16.30;;
28746;SDS011;15903;49.008;8.394;2023-03-01T04:30:54;32.38;;;16.92;;
28746;SDS011;15903;49.008;8.394;2023-03-01T04:33:20;40.35;;;17.35;;
28746;SDS011;15903;49.008;8.394;2023-03-01T04:35:48;34.00;;;16.52;;
28746;SDS011;15903;49.008;8.394;2023-03-01T04:38:17;33.10;;;17.15;;
28746;SDS011;15903;49.008;8.394;2023-03-01T04:40:43;34.40;;;17.40;;
28746;SDS011;15903;49.008;8.394;2023-03-01T04:43:09;37.80;;;18.25;;
28746;SDS011;15903;49.008;8.394;2023-03-01T04:45:36;32.83;;;17.55;;
28746;SDS011;15903;49.008;8.394;2023-03-01T04:48:02;32.28;;;16.48;;
28746;SDS011;15903;49.008;8.394;2023-03-01T04:50:28;34.85;;;18.00;;
28746;SDS011;15903;49.008;8.394;2023-03-01T04:52:55;34.55;;;18.38;;
28746;SDS011;15903;49.008;8.394;2023-03-01T04:55:23;32.47;;;18.48;;
28746;SDS011;15903;49.008;8.394;2023-03-01T04:57:50;38.88;;;18.35;;
28746;SDS011;15903;49.008;8.394;2023-03-01T05:00:16;30.52;;;15.75;;
28746;SDS011;15903;49.008;8.394;2023-03-01T05:02:46;34.72;;;18.42;;
28746;SDS011;15903;49.008;8.394;2023-03-01T05:05:25;34.72;;;17.83;;
28746;SDS011;15903;49.008;8.394;2023-03-01T05:07:57;32.90;;;18.13;;
28746;SDS011;15903;49.008;8.394;2023-03-01T05:10:25;38.72;;;18.77;;
28746;SDS011;15903;49.008;8.394;2023-03-01T05:12:54;34.42;;;18.00;;
28746;SDS011;15903;49.008;8.394;2023-03-01T05:15:22;33.60;;;18.63;;
28746;SDS011;15903;49.008;8.394;2023-03-01T05:17:50;33.90;;;18.17;;
28746;SDS011;15903;49.008;8.394;2023-03-01T05:20:16;36.67;;;19.40;;
28746;SDS011;15903;49.008;8.394;2023-03-01T05:22:42;35.70;;;17.80;;
28746;SDS011;15903;49.008;8.394;2023-03-01T05:25:08;37.90;;;18.20;;
28746;SDS011;15903;49.008;8.394;2023-03-01T05:27:35;33.72;;;18.30;;
28746;SDS011;15903;49.008;8.394;2023-03-01T05:30:01;32.75;;;16.58;;
28746;SDS011;15903;49.008;8.394;2023-03-01T05:32:38;36.88;;;18.20;;
28746;SDS011;15903;49.008;8.394;2023-03-01T05:35:08;37.75;;;17.70;;
28746;SDS011;15903;49.008;8.394;2023-03-01T05:37:34;32.40;;;17.80;;
28746;SDS011;15903;49.008;8.394;2023-03-01T05:40:00;37.28;;;18.77;;
28746;SDS011;15903;49.008;8.394;2023-03-01T05:42:26;35.55;;;18.25;;
28746;SDS011;15903;49.008;8.394;2023-03-01T05:44:52;33.17;;;17.63;;
28746;SDS011;15903;49.008;8.394;2023-03-01T05:47:17;33.30;;;18.25;;
28746;SDS011;15903;49.008;8.394;2023-03-01T05:49:43;34.92;;;18.25;;
28746;SDS011;15903;49.008;8.394;2023-03-01T05:52:08;39.03;;;19.90;;
28746;SDS011;15903;49.008;8.394;2023-03-01T05:54:34;38.63;;;18.40;;
28746;SDS011;15903;49.008;8.394;2023-03-01T05:56:59;41.95;;;18.67;;
28746;SDS011;15903;49.008;8.394;2023-03-01T05:59:25;34.50;;;17.75;;
28746;SDS011;15903;49.008;8.394;2023-03-01T06:01:51;40.00;;;18.95;;
28746;SDS011;15903;49.008;8.394;2023-03-01T06:04:16;36.90;;;18.98;;
28746;SDS011;15903;49.008;8.394;2023-03-01T06:06:42;41.50;;;18.85;;
28746;SDS011;15903;49.008;8.394;2023-03-01T06:09:07;36.10;;;18.00;;
28746;SDS011;15903;49.008;8.394;2023-03-01T06:11:35;37.55;;;18.63;;
28746;SDS011;15903;49.008;8.394;2023-03-01T06:14:01;37.00;;;18.92;;
28746;SDS011;15903;49.008;8.394;2023-03-01T06:16:27;36.35;;;17.85;;
28746;SDS011;15903;49.008;8.394;2023-03-01T06:18:52;33.05;;;18.67;;
28746;SDS011;15903;49.008;8.394;2023-03-01T06:21:18;34.95;;;18.38;;
28746;SDS011;15903;49.008;8.394;2023-03-01T06:23:43;36.45;;;18.48;;
28746;SDS011;15903;49.008;8.394;2023-03-01T06:26:09;38.03;;;19.33;;
28746;SDS011;15903;49.008;8.394;2023-03-01T06:28:35;35.28;;;19.60;;
28746;SDS011;15903;49.008;8.394;2023-03-01T06:31:00;38.85;;;18.55;;
28746;SDS011;15903;49.008;8.394;2023-03-01T06:33:26;35.80;;;19.23;;
28746;SDS011;15903;49.008;8.394;2023-03-01T06:35:54;36.67;;;19.65;;
28746;SDS011;15903;49.008;8.394;2023-03-01T06:38:20;42.05;;;20.85;;
28746;SDS011;15903;49.008;8.394;2023-03-01T06:40:51;41.00;;;20.23;;
28746;SDS011;15903;49.008;8.394;2023-03-01T06:43:18;40.13;;;20.00;;
28746;SDS011;15903;49.008;8.394;2023-03-01T06:45:44;43.50;;;21.38;;
28746;SDS011;15903;49.008;8.394;2023-03-01T06:48:10;40.80;;;20.80;;
28746;SDS011;15903;49.008;8.394;2023-03-01T06:50:36;40.83;;;22.15;;
28746;SDS011;15903;49.008;8.394;2023-03-01T06:53:02;39.88;;;21.00;;
28746;SDS011;15903;49.008;8.394;2023-03-01T06:55:28;41.08;;;20.65;;
28746;SDS011;15903;49.008;8.394;2023-03-01T06:58:00;38.35;;;21.02;;
28746;SDS011;15903;49.008;8.394;2023-03-01T07:00:27;41.97;;;21.33;;
28746;SDS011;15903;49.008;8.394;2023-03-01T07:02:53;44.75;;;20.52;;
28746;SDS011;15903;49.008;8.394;2023-03-01T07:05:19;42.13;;;21.65;;
28746;SDS011;15903;49.008;8.394;2023-03-01T07:07:44;45.72;;;23.17;;
28746;SDS011;15903;49.008;8.394;2023-03-01T07:10:10;42.38;;;21.58;;
28746;SDS011;15903;49.008;8.394;2023-03-01T07:12:38;44.85;;;21.92;;
28746;SDS011;15903;49.008;8.394;2023-03-01T07:15:04;40.03;;;20.63;;
28746;SDS011;15903;49.008;8.394;2023-03-01T07:17:30;42.10;;;21.17;;
28746;SDS011;15903;49.008;8.394;2023-03-01T07:19:56;43.55;;;22.90;;
28746;SDS011;15903;49.008;8.394;2023-03-01T07:22:22;37.42;;;21.05;;
28746;SDS011;15903;49.008;8.394;2023-03-01T07:24:48;41.50;;;22.33;;
28746;SDS011;15903;49.008;8.394;2023-03-01T07:27:13;40.80;;;21.40;;
28746;SDS011;15903;49.008;8.394;2023-03-01T07:29:39;44.80;;;22.77;;
28746;SDS011;15903;49.008;8.394;2023-03-01T07:32:05;46.88;;;23.98;;
28746;SDS011;15903;49.008;8.394;2023-03-01T07:34:31;45.63;;;22.63;;
28746;SDS011;15903;49.008;8.394;2023-03-01T07:36:57;42.42;;;21.17;;
28746;SDS011;15903;49.008;8.394;2023-03-01T07:39:22;46.00;;;22.02;;
28746;SDS011;15903;49.008;8.394;2023-03-01T07:41:48;48.78;;;23.13;;
28746;SDS011;15903;49.008;8.394;2023-03-01T07:44:15;43.13;;;21.15;;
28746;SDS011;15903;49.008;8.394;2023-03-01T07:46:41;56.90;;;22.83;;
28746;SDS011;15903;49.008;8.394;2023-03-01T07:49:07;45.47;;;23.63;;
28746;SDS011;15903;49.008;8.394;2023-03-01T07:51:32;49.70;;;22.98;;
28746;SDS011;15903;49.008;8.394;2023-03-01T07:53:58;45.25;;;21.52;;
28746;SDS011;15903;49.008;8.394;2023-03-01T07:56:23;49.85;;;23.08;;
28746;SDS011;15903;49.008;8.394;2023-03-01T07:58:49;45.10;;;22.52;;
28746;SDS011;15903;49.008;8.394;2023-03-01T08:01:16;43.72;;;22.13;;
28746;SDS011;15903;49.008;8.394;2023-03-01T08:03:44;48.42;;;22.70;;
28746;SDS011;15903;49.008;8.394;2023-03-01T08:06:10;45.92;;;22.05;;
28746;SDS011;15903;49.008;8.394;2023-03-01T08:08:37;42.90;;;22.13;;
28746;SDS011;15903;49.008;8.394;2023-03-01T08:11:04;40.72;;;21.55;;
28746;SDS011;15903;49.008;8.394;2023-03-01T08:13:31;44.08;;;23.00;;
28746;SDS011;15903;49.008;8.394;2023-03-01T08:16:01;46.63;;;23.50;;
28746;SDS011;15903;49.008;8.394;2023-03-01T08:18:31;42.13;;;22.05;;
28746;SDS011;15903;49.008;8.394;2023-03-01T08:21:01;42.20;;;22.00;;
28746;SDS011;15903;49.008;8.394;2023-03-01T08:23:30;43.65;;;21.90;;
28746;SDS011;15903;49.008;8.394;2023-03-01T08:26:02;47.05;;;23.23;;
28746;SDS011;15903;49.008;8.394;2023-03-01T08:28:33;42.67;;;23.17;;
28746;SDS011;15903;49.008;8.394;2023-03-01T08:30:58;40.55;;;22.83;;
28746;SDS011;15903;49.008;8.394;2023-03-01T08:33:24;42.47;;;22.45;;
28746;SDS011;15903;49.008;8.394;2023-03-01T08:35:50;41.85;;;21.95;;
28746;SDS011;15903;49.008;8.394;2023-03-01T08:38:15;39.03;;;21.20;;
28746;SDS011;15903;49.008;8.394;2023-03-01T08:40:41;43.28;;;21.23;;
28746;SDS011;15903;49.008;8.394;2023-03-01T08:43:06;40.03;;;21.63;;
28746;SDS011;15903;49.008;8.394;2023-03-01T08:45:32;37.38;;;20.38;;
28746;SDS011;15903;49.008;8.394;2023-03-01T08:47:57;37.58;;;19.85;;
28746;SDS011;15903;49.008;8.394;2023-03-01T08:50:23;40.25;;;21.15;;
28746;SDS011;15903;49.008;8.394;2023-03-01T08:52:49;37.30;;;20.42;;
28746;SDS011;15903;49.008;8.394;2023-03-01T08:55:15;42.55;;;20.75;;
28746;SDS011;15903;49.008;8.394;2023-03-01T08:57:42;40.88;;;20.23;;
28746;SDS011;15903;49.008;8.394;2023-03-01T09:00:08;38.42;;;20.90;;
28746;SDS011;15903;49.008;8.394;2023-03-01T09:02:36;39.25;;;20.25;;
28746;SDS011;15903;49.008;8.394;2023-03-01T09:05:02;43.35;;;21.80;;
28746;SDS011;15903;49.008;8.394;2023-03-01T09:07:28;40.28;;;22.08;;
28746;SDS011;15903;49.008;8.394;2023-03-01T09:09:53;37.42;;;20.52;;
28746;SDS011;15903;49.008;8.394;2023-03-01T09:12:20;38.10;;;20.42;;
28746;SDS011;15903;49.008;8.394;2023-03-01T09:14:45;41.97;;;20.92;;
28746;SDS011;15903;49.008;8.394;2023-03-01T09:17:11;37.83;;;21.10;;
28746;SDS011;15903;49.008;8.394;2023-03-01T09:19:36;37.63;;;20.55;;
28746;SDS011;15903;49.008;8.394;2023-03-01T09:22:03;34.20;;;20.23;;
28746;SDS011;15903;49.008;8.394;2023-03-01T09:24:29;37.50;;;21.38;;
28746;SDS011;15903;49.008;8.394;2023-03-01T09:26:55;37.75;;;20.15;;
28746;SDS011;15903;49.008;8.394;2023-03-01T09:29:21;38.25;;;21.15;;
28746;SDS011;15903;49.008;8.394;2023-03-01T09:31:48;34.28;;;19.45;;
28746;SDS011;15903;49.008;8.394;2023-03-01T09:34:13;38.05;;;21.25;;
28746;SDS011;15903;49.008;8.394;2023-03-01T09:36:41;43.38;;;22.60;;
28746;SDS011;15903;49.008;8.394;2023-03-01T09:39:07;42.28;;;21.60;;
28746;SDS011;15903;49.008;8.394;2023-03-01T09:46:45;35.95;;;20.85;;
28746;SDS011;15903;49.008;8.394;2023-03-01T09:49:18;40.58;;;20.15;;
28746;SDS011;15903;49.008;8.394;2023-03-01T09:51:54;36.58;;;20.70;;
28746;SDS011;15903;49.008;8.394;2023-03-01T09:54:37;34.72;;;19.23;;
28746;SDS011;15903;49.008;8.394;2023-03-01T09:57:11;37.67;;;21.35;;
28746;SDS011;15903;49.008;8.394;2023-03-01T10:08:28;37.42;;;20.33;;
28746;SDS011;15903;49.008;8.394;2023-03-01T10:10:56;39.45;;;22.20;;
28746;SDS011;15903;49.008;8.394;2023-03-01T10:13:27;41.78;;;21.50;;
28746;SDS011;15903;49.008;8.394;2023-03-01T10:18:53;39.90;;;21.90;;
28746;SDS011;15903;49.008;8.394;2023-03-01T10:21:25;41.80;;;21.55;;
28746;SDS011;15903;49.008;8.394;2023-03-01T10:23:52;38.20;;;21.73;;
28746;SDS011;15903;49.008;8.394;2023-03-01T10:26:30;36.88;;;21.73;;
28746;SDS011;15903;49.008;8.394;2023-03-01T10:29:17;37.83;;;21.45;;
28746;SDS011;15903;49.008;8.394;2023-03-01T10:31:49;38.97;;;21.67;;
28746;SDS011;15903;49.008;8.394;2023-03-01T10:36:44;37.63;;;20.02;;
28746;SDS011;15903;49.008;8.394;2023-03-01T10:39:15;36.83;;;20.83;;
28746;SDS011;15903;49.008;8.394;2023-03-01T10:41:53;37.60;;;21.15;;
28746;SDS011;15903;49.008;8.394;2023-03-01T10:47:16;38.10;;;21.30;;
28746;SDS011;15903;49.008;8.394;2023-03-01T10:49:55;41.47;;;21.38;;
28746;SDS011;15903;49.008;8.394;2023-03-01T10:52:26;40.03;;;21.35;;
28746;SDS011;15903;49.008;8.394;2023-03-01T10:55:16;40.80;;;22.27;;
28746;SDS011;15903;49.008;8.394;2023-03-01T10:57:49;37.47;;;21.05;;
28746;SDS011;15903;49.008;8.394;2023-03-01T11:02:45;37.28;;;21.17;;
28746;SDS011;15903;49.008;8.394;2023-03-01T11:05:20;37.03;;;21.02;;
28746;SDS011;15903;49.008;8.394;2023-03-01T11:07:56;39.25;;;21.33;;
28746;SDS011;15903;49.008;8.394;2023-03-01T11:10:27;34.15;;;20.83;;
28746;SDS011;15903;49.008;8.394;2023-03-01T11:12:53;37.38;;;21.02;;
28746;SDS011;15903;49.008;8.394;2023-03-01T11:15:30;36.83;;;20.77;;
28746;SDS011;15903;49.008;8.394;2023-03-01T11:17:56;37.33;;;21.55;;
28746;SDS011;15903;49.008;8.394;2023-03-01T11:22:55;32.35;;;20.60;;
28746;SDS011;15903;49.008;8.394;2023-03-01T11:25:29;36.95;;;20.48;;
28746;SDS011;15903;49.008;8.394;2023-03-01T11:28:02;33.13;;;19.80;;
28746;SDS011;15903;49.008;8.394;2023-03-01T11:30:41;38.10;;;22.63;;
28746;SDS011;15903;49.008;8.394;2023-03-01T11:33:18;36.53;;;20.90;;
28746;SDS011;15903;49.008;8.394;2023-03-01T11:36:16;38.88;;;19.95;;
28746;SDS011;15903;49.008;8.394;2023-03-01T11:38:42;36.50;;;19.85;;
28746;SDS011;15903;49.008;8.394;2023-03-01T11:41:21;34.05;;;19.88;;
28746;SDS011;15903;49.008;8.394;2023-03-01T11:43:55;35.60;;;19.92;;
28746;SDS011;15903;49.008;8.394;2023-03-01T11:46:38;32.70;;;20.80;;
28746;SDS011;15903;49.008;8.394;2023-03-01T11:49:59;33.38;;;19.38;;
28746;SDS011;15903;49.008;8.394;2023-03-01T11:55:08;37.47;;;21.23;;
28746;SDS011;15903;49.008;8.394;2023-03-01T12:00:40;35.55;;;20.30;;
28746;SDS011;15903;49.008;8.394;2023-03-01T12:03:33;34.25;;;20.83;;
28746;SDS011;15903;49.008;8.394;2023-03-01T12:06:18;33.95;;;20.90;;
28746;SDS011;15903;49.008;8.394;2023-03-01T12:11:55;32.65;;;19.50;;
28746;SDS011;15903;49.008;8.394;2023-03-01T12:22:31;30.90;;;19.90;;
28746;SDS011;15903;49.008;8.394;2023-03-01T12:30:55;33.58;;;19.52;;
28746;SDS011;15903;49.008;8.394;2023-03-01T12:42:49;32.33;;;18.25;;
28746;SDS011;15903;49.008;8.394;2023-03-01T12:50:59;29.60;;;18.65;;
28746;SDS011;15903;49.008;8.394;2023-03-01T12:53:52;31.42;;;19.02;;
28746;SDS011;15903;49.008;8.394;2023-03-01T12:56:19;31.05;;;18.30;;
28746;SDS011;15903;49.008;8.394;2023-03-01T13:01:42;28.10;;;18.10;;
28746;SDS011;15903;49.008;8.394;2023-03-01T13:04:34;28.00;;;18.10;;
28746;SDS011;15903;49.008;8.394;2023-03-01T13:07:29;36.00;;;20.85;;
28746;SDS011;15903;49.008;8.394;2023-03-01T13:10:19;31.15;;;19.45;;
28746;SDS011;15903;49.008;8.394;2023-03-01T13:17:57;30.38;;;17.85;;
28746;SDS011;15903;49.008;8.394;2023-03-01T13:20:33;31.83;;;18.02;;
28746;SDS011;15903;49.008;8.394;2023-03-01T13:30:59;28.77;;;15.85;;
28746;SDS011;15903;49.008;8.394;2023-03-01T13:35:52;24.75;;;16.17;;
28746;SDS011;15903;49.008;8.394;2023-03-01T13:41:09;33.50;;;16.80;;
28746;SDS011;15903;49.008;8.394;2023-03-01T13:43:35;31.60;;;17.17;;
28746;SDS011;15903;49.008;8.394;2023-03-01T13:46:15;28.88;;;16.33;;
28746;SDS011;15903;49.008;8.394;2023-03-01T13:48:45;25.35;;;15.80;;
28746;SDS011;15903;49.008;8.394;2023-03-01T13:51:20;28.60;;;17.30;;
28746;SDS011;15903;49.008;8.394;2023-03-01T13:53:52;28.40;;;15.95;;
28746;SDS011;15903;49.008;8.394;2023-03-01T13:56:27;27.63;;;16.38;;
28746;SDS011;15903;49.008;8.394;2023-03-01T13:58:59;23.27;;;14.90;;
28746;SDS011;15903;49.008;8.394;2023-03-01T14:01:30;29.75;;;16.23;;
28746;SDS011;15903;49.008;8.394;2023-03-01T14:03:56;29.45;;;16.85;;
28746;SDS011;15903;49.008;8.394;2023-03-01T14:06:27;24.83;;;16.38;;
28746;SDS011;15903;49.008;8.394;2023-03-01T14:09:30;24.73;;;15.55;;
28746;SDS011;15903;49.008;8.394;2023-03-01T14:12:00;26.13;;;16.45;;
28746;SDS011;15903;49.008;8.394;2023-03-01T14:17:34;27.30;;;16.08;;
28746;SDS011;15903;49.008;8.394;2023-03-01T14:20:23;23.63;;;15.50;;
28746;SDS011;15903;49.008;8.394;2023-03-01T14:22:54;25.80;;;16.52;;
28746;SDS011;15903;49.008;8.394;2023-03-01T14:25:27;28.77;;;16.30;;
28746;SDS011;15903;49.008;8.394;2023-03-01T14:28:02;26.23;;;15.85;;
28746;SDS011;15903;49.008;8.394;2023-03-01T14:30:39;23.55;;;15.68;;
28746;SDS011;15903;49.008;8.394;2023-03-01T14:33:17;23.83;;;15.52;;
28746;SDS011;15903;49.008;8.394;2023-03-01T14:35:57;27.08;;;14.82;;
28746;SDS011;15903;49.008;8.394;2023-03-01T14:38:44;26.42;;;15.85;;
28746;SDS011;15903;49.008;8.394;2023-03-01T14:41:12;26.02;;;15.57;;
28746;SDS011;15903;49.008;8.394;2023-03-01T14:43:47;24.63;;;16.00;;
28746;SDS011;15903;49.008;8.394;2023-03-01T14:46:21;28.75;;;17.00;;
28746;SDS011;15903;49.008;8.394;2023-03-01T14:49:03;28.42;;;15.85;;
28746;SDS011;15903;49.008;8.394;2023-03-01T14:51:36;25.63;;;15.93;;
28746;SDS011;15903;49.008;8.394;2023-03-01T14:54:18;25.63;;;15.80;;
28746;SDS011;15903;49.008;8.394;2023-03-01T14:57:05;25.08;;;15.50;;
28746;SDS011;15903;49.008;8.394;2023-03-01T14:59:32;23.58;;;15.95;;
28746;SDS011;15903;49.008;8.394;2023-03-01T15:01:59;25.73;;;16.38;;
28746;SDS011;15903;49.008;8.394;2023-03-01T15:04:25;29.42;;;18.05;;
28746;SDS011;15903;49.008;8.394;2023-03-01T15:06:53;25.92;;;15.93;;
28746;SDS011;15903;49.008;8.394;2023-03-01T15:09:20;29.17;;;16.77;;
28746;SDS011;15903;49.008;8.394;2023-03-01T15:11:47;26.02;;;16.20;;
28746;SDS011;15903;49.008;8.394;2023-03-01T15:17:20;25.38;;;16.13;;
28746;SDS011;15903;49.008;8.394;2023-03-01T15:19:55;25.55;;;15.70;;
28746;SDS011;15903;49.008;8.394;2023-03-01T15:22:21;26.05;;;15.75;;
28746;SDS011;15903;49.008;8.394;2023-03-01T15:24:49;25.70;;;16.02;;
28746;SDS011;15903;49.008;8.394;2023-03-01T15:27:19;25.98;;;16.00;;
28746;SDS011;15903;49.008;8.394;2023-03-01T15:29:50;25.15;;;16.02;;
28746;SDS011;15903;49.008;8.394;2023-03-01T15:34:48;26.25;;;15.65;;
28746;SDS011;15903;49.008;8.394;2023-03-01T15:40:25;23.88;;;15.52;;
28746;SDS011;15903;49.008;8.394;2023-03-01T15:43:00;23.90;;;15.13;;
28746;SDS011;15903;49.008;8.394;2023-03-01T15:45:27;27.38;;;16.98;;
28746;SDS011;15903;49.008;8.394;2023-03-01T15:48:02;24.20;;;15.63;;
28746;SDS011;15903;49.008;8.394;2023-03-01T15:50:31;27.65;;;16.63;;
28746;SDS011;15903;49.008;8.394;2023-03-01T15:53:04;25.35;;;16.45;;
28746;SDS011;15903;49.008;8.394;2023-03-01T15:55:39;35.38;;;15.80;;
28746;SDS011;15903;49.008;8.394;2023-03-01T15:58:15;28.65;;;16.52;;
28746;SDS011;15903;49.008;8.394;2023-03-01T16:00:45;28.05;;;16.80;;
28746;SDS011;15903;49.008;8.394;2023-03-01T16:03:13;24.85;;;14.88;;
28746;SDS011;15903;49.008;8.394;2023-03-01T16:05:46;28.05;;;16.50;;
28746;SDS011;15903;49.008;8.394;2023-03-01T16:08:13;26.40;;;16.10;;
28746;SDS011;15903;49.008;8.394;2023-03-01T16:10:40;26.85;;;16.42;;
28746;SDS011;15903;49.008;8.394;2023-03-01T16:13:08;26.42;;;16.30;;
28746;SDS011;15903;49.008;8.394;2023-03-01T16:15:34;29.60;;;16.60;;
28746;SDS011;15903;49.008;8.394;2023-03-01T16:18:01;30.00;;;15.68;;
28746;SDS011;15903;49.008;8.394;2023-03-01T16:20:27;24.50;;;15.63;;
28746;SDS011;15903;49.008;8.394;2023-03-01T16:22:54;25.55;;;16.95;;
28746;SDS011;15903;49.008;8.394;2023-03-01T16:25:25;28.55;;;17.17;;
28746;SDS011;15903;49.008;8.394;2023-03-01T16:27:50;27.67;;;16.75;;
28746;SDS011;15903;49.008;8.394;2023-03-01T16:30:17;25.85;;;16.42;;
28746;SDS011;15903;49.008;8.394;2023-03-01T16:32:46;25.55;;;16.48;;